Time;durP1;ratioP1;P1;durP2;ratioP2;P2;SDS_P1;SDS_P2;PMS_P1;PMS_P2;Temp;Humidity;BMP_temperature;BMP_pressure;BME280_temperature;BME280_humidity;BME280_pressure;Samples;Min_cycle;Max_cycle;Signal;HPM_P1;HPM_P2
2024/02/08 00:01:40;;;;;;;13.90;7.38;;;1.30;99.90;;;;;;5093930;28;20237;-63
2024/02/08 00:04:07;;;;;;;13.05;6.63;;;1.30;99.90;;;;;;5093778;28;20195;-64
2024/02/08 00:06:33;;;;;;;14.88;6.90;;;1.40;99.90;;;;;;5093403;28;20666;-63
2024/02/08 00:09:00;;;;;;;15.55;6.65;;;1.30;99.90;;;;;;5093616;28;20682;-64
2024/02/08 00:11:31;;;;;;;12.35;6.40;;;1.30;99.90;;;;;;5093544;28;20196;-63
2024/02/08 00:13:58;;;;;;;12.00;6.18;;;1.30;99.90;;;;;;5093912;28;20642;-64
2024/02/08 00:16:26;;;;;;;7.45;6.30;;;1.30;99.90;;;;;;5093809;28;20670;-64
2024/02/08 00:18:54;;;;;;;15.68;6.38;;;1.30;99.90;;;;;;5093372;28;20232;-63
2024/02/08 00:21:21;;;;;;;9.13;5.95;;;1.30;99.90;;;;;;5093760;28;20204;-62
2024/02/08 00:23:47;;;;;;;8.23;5.20;;;1.20;99.90;;;;;;5094193;28;20197;-63
2024/02/08 00:26:17;;;;;;;14.93;5.40;;;1.30;99.90;;;;;;5093779;28;20208;-63
2024/02/08 00:28:45;;;;;;;13.45;6.68;;;1.20;99.90;;;;;;5096155;28;20224;-62
2024/02/08 00:31:12;;;;;;;12.63;6.75;;;1.20;99.90;;;;;;5098039;28;20212;-62
2024/02/08 00:33:38;;;;;;;11.88;7.85;;;1.20;99.90;;;;;;5097833;28;20200;-62
2024/02/08 00:36:06;;;;;;;9.27;7.45;;;1.30;99.90;;;;;;5097603;28;20200;-63
2024/02/08 00:38:32;;;;;;;10.55;7.90;;;1.30;99.90;;;;;;5097503;28;20588;-62
2024/02/08 00:40:59;;;;;;;15.30;7.65;;;1.30;99.90;;;;;;5097761;28;20205;-64
2024/02/08 00:43:26;;;;;;;12.25;7.80;;;1.40;99.90;;;;;;5097029;28;20204;-61
2024/02/08 00:45:55;;;;;;;15.50;7.88;;;1.40;99.90;;;;;;5097219;28;20211;-63
2024/02/08 00:48:22;;;;;;;10.73;7.50;;;1.40;99.90;;;;;;5097290;28;20220;-63
2024/02/08 00:50:48;;;;;;;11.57;7.70;;;1.40;99.90;;;;;;5097054;28;20291;-63
2024/02/08 00:53:15;;;;;;;18.38;7.95;;;1.50;99.90;;;;;;5097026;28;20204;-64
2024/02/08 00:55:43;;;;;;;11.30;6.25;;;1.40;99.90;;;;;;5096958;28;20211;-63
2024/02/08 00:58:15;;;;;;;10.57;6.70;;;1.50;99.90;;;;;;5096486;28;20697;-62
2024/02/08 01:00:42;;;;;;;15.57;7.03;;;1.50;99.90;;;;;;5096810;28;20189;-63
2024/02/08 01:03:10;;;;;;;11.82;6.10;;;1.50;99.90;;;;;;5097174;28;20200;-64
2024/02/08 01:05:37;;;;;;;9.60;6.28;;;1.50;99.90;;;;;;5096464;28;20239;-63
2024/02/08 01:08:04;;;;;;;12.88;6.68;;;1.50;99.90;;;;;;5096882;28;20212;-63
2024/02/08 01:10:31;;;;;;;11.45;6.30;;;1.50;99.90;;;;;;5096995;28;20206;-62
2024/02/08 01:12:58;;;;;;;10.80;6.50;;;1.60;99.90;;;;;;5096391;28;20686;-63
2024/02/08 01:15:26;;;;;;;11.93;6.75;;;1.60;99.90;;;;;;5096183;28;20674;-62
2024/02/08 01:17:53;;;;;;;16.13;6.57;;;1.60;99.90;;;;;;5096314;28;20224;-62
2024/02/08 01:20:22;;;;;;;10.85;5.30;;;1.60;99.90;;;;;;5096176;28;20550;-63
2024/02/08 01:22:50;;;;;;;12.70;6.07;;;1.60;99.90;;;;;;5096535;28;20208;-62
2024/02/08 01:25:17;;;;;;;12.40;7.05;;;1.60;99.90;;;;;;5096619;28;20215;-62
2024/02/08 01:27:44;;;;;;;6.85;5.15;;;1.70;99.90;;;;;;5096458;28;20213;-63
2024/02/08 01:30:13;;;;;;;8.50;5.47;;;1.60;99.90;;;;;;5095993;28;20734;-64
2024/02/08 01:32:41;;;;;;;9.48;6.45;;;1.60;99.90;;;;;;5095672;28;20783;-63
2024/02/08 01:35:10;;;;;;;7.68;5.25;;;1.60;99.90;;;;;;5095826;28;20617;-61
2024/02/08 01:37:39;;;;;;;11.52;5.90;;;1.60;99.90;;;;;;5095600;28;20224;-63
2024/02/08 01:40:12;;;;;;;12.80;6.03;;;1.60;99.90;;;;;;5095173;28;20253;-62
2024/02/08 01:42:39;;;;;;;10.90;6.15;;;1.60;99.90;;;;;;5095955;28;20234;-63
2024/02/08 01:45:30;;;;;;;16.50;6.82;;;1.60;99.90;;;;;;5096012;28;20306;-62
2024/02/08 01:47:58;;;;;;;9.63;5.63;;;1.50;99.90;;;;;;5096110;28;20224;-63
2024/02/08 01:50:26;;;;;;;9.45;5.93;;;1.50;99.90;;;;;;5095583;28;20210;-64
2024/02/08 01:52:54;;;;;;;17.35;6.40;;;1.50;99.90;;;;;;5095967;28;20579;-64
2024/02/08 01:55:22;;;;;;;15.38;6.03;;;1.50;99.90;;;;;;5096061;28;20201;-62
2024/02/08 01:57:49;;;;;;;8.75;4.93;;;1.60;99.90;;;;;;5095588;28;20273;-62
2024/02/08 02:00:16;;;;;;;13.15;5.70;;;1.60;99.90;;;;;;5095226;28;20201;-62
2024/02/08 02:02:52;;;;;;;9.65;5.95;;;1.60;99.90;;;;;;5095270;28;20678;-63
2024/02/08 02:05:21;;;;;;;10.57;4.95;;;1.60;99.90;;;;;;5095462;28;20555;-63
2024/02/08 02:07:48;;;;;;;11.15;4.95;;;1.60;99.90;;;;;;5095185;28;20212;-63
2024/02/08 02:10:18;;;;;;;16.02;5.32;;;1.70;99.90;;;;;;5094766;28;20673;-62
2024/02/08 02:12:47;;;;;;;8.55;5.20;;;1.70;99.90;;;;;;5095291;28;20201;-62
2024/02/08 02:15:15;;;;;;;24.45;5.70;;;1.70;99.90;;;;;;5095121;28;20197;-63
2024/02/08 02:17:44;;;;;;;15.90;6.13;;;1.70;99.90;;;;;;5094854;28;20239;-63
2024/02/08 02:20:18;;;;;;;9.57;6.65;;;1.70;99.90;;;;;;5094832;28;20211;-64
2024/02/08 02:22:46;;;;;;;7.85;5.80;;;1.70;99.90;;;;;;5095141;28;20262;-63
2024/02/08 02:25:14;;;;;;;12.45;5.82;;;1.70;99.90;;;;;;5095313;28;20202;-63
2024/02/08 02:27:42;;;;;;;15.48;6.03;;;1.70;99.90;;;;;;5095678;28;20225;-63
2024/02/08 02:30:15;;;;;;;11.52;5.40;;;1.70;99.90;;;;;;5095220;28;20254;-62
2024/02/08 02:32:44;;;;;;;11.02;5.35;;;1.70;99.90;;;;;;5094836;28;20638;-62
2024/02/08 02:35:12;;;;;;;8.85;4.85;;;1.70;99.90;;;;;;5094867;28;20196;-61
2024/02/08 02:37:38;;;;;;;6.93;5.70;;;1.70;99.90;;;;;;5094724;28;20243;-63
2024/02/08 02:40:08;;;;;;;9.48;5.20;;;1.70;99.90;;;;;;5095513;28;20230;-61
2024/02/08 02:42:36;;;;;;;8.70;5.57;;;1.70;99.90;;;;;;5094642;28;20220;-62
2024/02/08 02:45:03;;;;;;;17.40;6.60;;;1.70;99.90;;;;;;5095123;28;20253;-63
2024/02/08 02:47:29;;;;;;;12.85;6.72;;;1.70;99.90;;;;;;5094548;28;20227;-63
2024/02/08 02:49:56;;;;;;;13.93;6.75;;;1.70;99.90;;;;;;5094754;28;20201;-62
2024/02/08 02:52:23;;;;;;;12.75;5.75;;;1.70;99.90;;;;;;5093046;28;20212;-62
2024/02/08 02:54:49;;;;;;;13.30;4.88;;;1.70;99.90;;;;;;5094747;28;20210;-61
2024/02/08 02:57:18;;;;;;;9.88;5.65;;;1.80;99.90;;;;;;5094247;28;20226;-62
2024/02/08 02:59:45;;;;;;;10.60;5.85;;;1.80;99.90;;;;;;5094117;28;20319;-63
2024/02/08 03:02:12;;;;;;;8.13;4.75;;;1.80;99.90;;;;;;5094245;28;20200;-62
2024/02/08 03:04:40;;;;;;;10.88;6.20;;;1.80;99.90;;;;;;5094227;28;20236;-62
2024/02/08 03:07:09;;;;;;;8.85;5.30;;;1.80;99.90;;;;;;5094872;28;20310;-63
2024/02/08 03:09:36;;;;;;;11.88;5.85;;;1.80;99.90;;;;;;5093983;28;20204;-63
2024/02/08 03:12:03;;;;;;;14.65;6.40;;;1.80;99.90;;;;;;5094236;28;20196;-64
2024/02/08 03:14:34;;;;;;;11.30;5.82;;;1.80;99.90;;;;;;5094393;28;20200;-62
2024/02/08 03:17:02;;;;;;;8.15;5.25;;;1.80;99.90;;;;;;5094192;28;20262;-63
2024/02/08 03:19:30;;;;;;;13.70;5.43;;;1.80;99.90;;;;;;5095023;28;20234;-63
2024/02/08 03:21:57;;;;;;;8.55;5.53;;;1.80;99.90;;;;;;5094349;28;20666;-63
2024/02/08 03:24:25;;;;;;;8.05;4.90;;;1.90;99.90;;;;;;5094596;28;20700;-64
2024/02/08 03:26:52;;;;;;;11.65;6.05;;;1.90;99.90;;;;;;5094551;28;20570;-64
2024/02/08 03:29:22;;;;;;;15.50;6.20;;;1.90;99.90;;;;;;5094517;28;20185;-63
2024/02/08 03:31:52;;;;;;;6.55;4.82;;;2.00;99.90;;;;;;5109846;22;20310;-63
2024/02/08 03:34:23;;;;;;;15.48;5.43;;;2.00;99.90;;;;;;5095211;28;20283;-61
2024/02/08 03:36:50;;;;;;;7.00;5.32;;;2.00;99.90;;;;;;5096003;28;20558;-62
2024/02/08 03:39:25;;;;;;;12.57;5.78;;;2.00;99.90;;;;;;5097049;28;20269;-61
2024/02/08 03:41:55;;;;;;;13.32;5.93;;;2.00;99.90;;;;;;5095191;28;20277;-62
2024/02/08 03:44:22;;;;;;;18.42;5.88;;;2.00;99.90;;;;;;5095803;28;20197;-62
2024/02/08 03:46:52;;;;;;;9.30;4.72;;;2.00;99.90;;;;;;5096466;28;20211;-62
2024/02/08 03:49:19;;;;;;;13.30;6.03;;;2.00;99.90;;;;;;5096580;28;20275;-62
2024/02/08 03:51:47;;;;;;;12.80;5.57;;;2.00;99.90;;;;;;5094986;28;20224;-62
2024/02/08 03:54:16;;;;;;;12.32;6.03;;;2.00;99.90;;;;;;5094666;28;20204;-61
2024/02/08 03:56:45;;;;;;;13.50;6.72;;;2.00;99.90;;;;;;5094778;28;20197;-63
2024/02/08 03:59:26;;;;;;;11.45;5.93;;;2.00;99.90;;;;;;5094519;28;20216;-64
2024/02/08 04:02:00;;;;;;;5.88;5.15;;;2.00;99.90;;;;;;5099665;28;20224;-63
2024/02/08 04:04:29;;;;;;;9.00;5.53;;;2.10;99.90;;;;;;5106786;28;20218;-63
2024/02/08 04:07:14;;;;;;;7.97;5.50;;;2.10;99.90;;;;;;5103885;28;20230;-63
2024/02/08 04:54:18;;;;;;;17.65;6.10;;;2.20;99.90;;;;;;5091326;28;20241;-63
2024/02/08 04:56:46;;;;;;;11.18;6.20;;;2.20;99.90;;;;;;5091494;28;20201;-62
2024/02/08 04:59:13;;;;;;;9.90;6.25;;;2.20;99.90;;;;;;5091335;28;20197;-64
2024/02/08 05:01:41;;;;;;;14.15;6.60;;;2.20;99.90;;;;;;5091216;28;20220;-63
2024/02/08 05:04:08;;;;;;;10.20;5.90;;;2.30;99.90;;;;;;5091199;28;20200;-63
2024/02/08 05:06:35;;;;;;;14.40;6.97;;;2.30;99.90;;;;;;5091264;28;20209;-62
2024/02/08 05:09:02;;;;;;;11.98;6.00;;;2.30;99.90;;;;;;5091310;28;20212;-63
2024/02/08 05:11:29;;;;;;;10.23;5.75;;;2.30;99.90;;;;;;5091432;28;20315;-64
2024/02/08 05:14:00;;;;;;;13.57;6.20;;;2.30;99.90;;;;;;5090658;28;20204;-62
2024/02/08 05:16:27;;;;;;;16.27;6.50;;;2.30;99.90;;;;;;5092607;28;20195;-62
2024/02/08 05:18:55;;;;;;;17.10;7.47;;;2.30;99.90;;;;;;5091845;28;20207;-63
2024/02/08 05:21:23;;;;;;;9.68;6.78;;;2.40;99.90;;;;;;5091493;28;20223;-62
2024/02/08 05:23:51;;;;;;;18.17;7.00;;;2.40;99.90;;;;;;5081226;28;20213;-63
2024/02/08 05:26:19;;;;;;;16.77;6.40;;;2.40;99.90;;;;;;5077618;28;20216;-62
2024/02/08 05:28:46;;;;;;;18.75;7.03;;;2.40;99.90;;;;;;5077536;28;20362;-62
2024/02/08 05:31:13;;;;;;;11.65;6.25;;;2.40;99.90;;;;;;5078463;28;20217;-64
2024/02/08 05:33:41;;;;;;;7.55;5.60;;;2.40;99.90;;;;;;5077400;28;20748;-62
2024/02/08 05:36:09;;;;;;;18.20;6.38;;;2.40;99.90;;;;;;5077496;28;20197;-62
2024/02/08 05:38:37;;;;;;;11.50;6.05;;;2.40;99.90;;;;;;5077056;28;20208;-63
2024/02/08 05:41:06;;;;;;;11.68;7.13;;;2.40;99.90;;;;;;5077055;28;20294;-63
2024/02/08 05:43:41;;;;;;;15.90;6.20;;;2.40;99.90;;;;;;5077681;28;20201;-62
2024/02/08 05:46:08;;;;;;;16.92;8.15;;;2.40;99.90;;;;;;5076484;28;20220;-62
2024/02/08 05:48:39;;;;;;;16.80;8.60;;;2.50;99.90;;;;;;5076356;28;20674;-62
2024/02/08 05:51:11;;;;;;;9.32;6.35;;;2.50;99.90;;;;;;5076770;28;20595;-63
2024/02/08 05:53:40;;;;;;;10.15;6.20;;;2.50;99.90;;;;;;5076934;28;20228;-62
2024/02/08 05:56:08;;;;;;;9.75;6.55;;;2.50;99.90;;;;;;5077721;28;20201;-62
2024/02/08 05:58:37;;;;;;;12.55;7.72;;;2.50;99.90;;;;;;5078377;28;20204;-63
2024/02/08 06:01:16;;;;;;;13.48;6.97;;;2.50;99.90;;;;;;5076517;28;20220;-63
2024/02/08 06:03:44;;;;;;;15.45;7.53;;;2.50;99.90;;;;;;5077151;28;20242;-62
2024/02/08 06:06:16;;;;;;;15.70;8.77;;;2.50;99.90;;;;;;5076244;28;20683;-63
2024/02/08 06:08:46;;;;;;;14.25;6.32;;;2.50;99.90;;;;;;5076329;28;20189;-63
2024/02/08 06:11:16;;;;;;;16.02;7.47;;;2.50;99.90;;;;;;5076622;28;20235;-63
2024/02/08 06:13:50;;;;;;;13.13;7.70;;;2.50;99.90;;;;;;5076494;28;20196;-62
2024/02/08 06:16:26;;;;;;;10.45;7.53;;;2.50;99.90;;;;;;5076977;28;20220;-63
2024/02/08 06:19:02;;;;;;;13.85;7.30;;;2.50;99.90;;;;;;5077623;28;20188;-63
2024/02/08 06:21:39;;;;;;;13.82;7.72;;;2.50;99.90;;;;;;5077628;28;20627;-62
2024/02/08 06:24:29;;;;;;;11.75;8.05;;;2.50;99.90;;;;;;5077406;28;20188;-62
2024/02/08 06:26:58;;;;;;;14.10;9.00;;;2.50;99.90;;;;;;5075947;28;20299;-64
2024/02/08 06:29:38;;;;;;;18.52;8.38;;;2.50;99.90;;;;;;5079798;28;20201;-62
2024/02/08 06:32:23;;;;;;;15.75;7.75;;;2.50;99.90;;;;;;5081837;28;20253;-63
2024/02/08 06:34:55;;;;;;;13.77;7.88;;;2.60;99.90;;;;;;5082112;28;20192;-62
2024/02/08 06:37:30;;;;;;;12.63;7.22;;;2.60;99.90;;;;;;5082415;28;20189;-62
2024/02/08 06:39:58;;;;;;;19.30;7.47;;;2.60;99.90;;;;;;5083887;28;20207;-63
2024/02/08 06:48:14;;;;;;;14.48;7.22;;;2.60;99.90;;;;;;5084866;28;20185;-62
2024/02/08 07:37:53;;;;;;;15.38;7.60;;;2.90;99.90;;;;;;5078202;28;20184;-63
2024/02/08 07:40:24;;;;;;;16.83;7.88;;;2.90;99.90;;;;;;5078471;28;20233;-63
2024/02/08 07:43:16;;;;;;;9.63;6.47;;;3.00;99.90;;;;;;5078695;28;20182;-62
2024/02/08 07:45:45;;;;;;;10.68;6.78;;;3.00;99.90;;;;;;5079605;28;20559;-63
2024/02/08 07:48:13;;;;;;;14.85;7.50;;;3.00;99.90;;;;;;5082532;28;20207;-62
2024/02/08 07:50:45;;;;;;;16.08;7.88;;;3.10;99.90;;;;;;5080199;28;20225;-63
2024/02/08 07:53:19;;;;;;;17.67;8.05;;;3.10;99.90;;;;;;5077742;28;20577;-63
2024/02/08 07:55:57;;;;;;;14.93;7.60;;;3.10;99.90;;;;;;5076756;28;20643;-62
2024/02/08 07:58:27;;;;;;;15.13;7.07;;;3.20;99.90;;;;;;5077417;28;20193;-62
2024/02/08 08:00:57;;;;;;;12.00;6.25;;;3.20;99.90;;;;;;5076632;28;20217;-62
2024/02/08 08:03:32;;;;;;;19.80;7.80;;;3.30;99.90;;;;;;5076479;28;20192;-62
2024/02/08 08:05:59;;;;;;;13.13;7.03;;;3.40;99.90;;;;;;5078522;28;20292;-63
2024/02/08 08:08:28;;;;;;;13.27;6.65;;;3.40;99.90;;;;;;5077938;28;20208;-62
2024/02/08 08:11:02;;;;;;;15.10;7.90;;;3.40;99.90;;;;;;5076719;28;20290;-61
2024/02/08 08:18:57;;;;;;;13.98;6.75;;;3.50;99.90;;;;;;5077707;28;20189;-64
2024/02/08 08:21:25;;;;;;;18.23;6.13;;;3.60;99.90;;;;;;5079804;28;20632;-62
2024/02/08 08:23:59;;;;;;;12.52;7.22;;;3.60;99.90;;;;;;5079889;28;20197;-62
2024/02/08 08:26:37;;;;;;;14.88;7.25;;;3.70;99.90;;;;;;5081814;28;20181;-62
2024/02/08 08:29:12;;;;;;;11.18;6.35;;;3.70;99.90;;;;;;5077287;28;20193;-64
2024/02/08 08:31:51;;;;;;;14.50;6.45;;;3.80;99.90;;;;;;5075865;28;20244;-62
2024/02/08 08:37:26;;;;;;;10.70;6.57;;;3.80;99.90;;;;;;5076219;28;20185;-63
2024/02/08 08:42:49;;;;;;;14.38;7.57;;;4.00;99.90;;;;;;5076156;28;20686;-63
2024/02/08 08:45:17;;;;;;;14.65;6.65;;;4.10;99.90;;;;;;5076296;28;20227;-63
2024/02/08 08:47:45;;;;;;;14.23;6.95;;;4.20;99.90;;;;;;5075827;28;20204;-63
2024/02/08 08:50:18;;;;;;;14.40;6.55;;;4.20;99.90;;;;;;5076059;28;20197;-63
2024/02/08 08:52:49;;;;;;;10.45;7.38;;;4.20;99.90;;;;;;5076319;28;20202;-63
2024/02/08 08:55:18;;;;;;;10.18;6.30;;;4.30;99.90;;;;;;5076728;28;20200;-63
2024/02/08 08:57:51;;;;;;;11.13;7.22;;;4.40;99.90;;;;;;5075804;28;20201;-62
2024/02/08 09:00:31;;;;;;;9.77;6.95;;;4.40;99.90;;;;;;5079854;28;20185;-63
2024/02/08 09:03:00;;;;;;;11.68;6.88;;;4.50;99.90;;;;;;5087293;28;20211;-63
2024/02/08 09:05:31;;;;;;;13.30;5.95;;;4.60;99.90;;;;;;5090001;28;20208;-63
2024/02/08 09:07:59;;;;;;;9.13;6.10;;;4.60;99.90;;;;;;5087552;28;20216;-63
2024/02/08 09:10:26;;;;;;;11.02;6.70;;;4.70;99.90;;;;;;5083566;28;20204;-63
2024/02/08 09:15:48;;;;;;;16.05;6.75;;;4.80;99.90;;;;;;5080028;28;20220;-63
2024/02/08 09:18:16;;;;;;;17.60;7.85;;;4.70;99.90;;;;;;5081233;28;20211;-63
2024/02/08 09:20:43;;;;;;;15.60;6.93;;;4.70;99.90;;;;;;5080475;28;20231;-63
2024/02/08 09:23:17;;;;;;;14.13;6.55;;;4.80;99.90;;;;;;5080863;28;20192;-62
2024/02/08 09:25:45;;;;;;;11.38;6.95;;;4.80;99.90;;;;;;5080647;28;20215;-62
2024/02/08 09:28:26;;;;;;;12.98;6.05;;;4.90;99.90;;;;;;5079343;28;20239;-62
2024/02/08 09:30:55;;;;;;;11.80;6.57;;;5.00;99.90;;;;;;5078788;28;20225;-62
2024/02/08 09:33:44;;;;;;;16.60;8.35;;;5.10;99.90;;;;;;5078989;28;20220;-64
2024/02/08 09:36:14;;;;;;;13.77;8.10;;;5.20;99.90;;;;;;5079506;28;20185;-63
2024/02/08 09:38:43;;;;;;;13.40;7.00;;;5.30;99.90;;;;;;5080638;28;20674;-63
2024/02/08 09:41:15;;;;;;;16.58;8.80;;;5.50;99.90;;;;;;5081164;28;20570;-62
2024/02/08 09:43:44;;;;;;;17.85;8.10;;;5.50;99.90;;;;;;5080022;28;20181;-63
2024/02/08 09:46:28;;;;;;;14.60;7.68;;;5.50;99.90;;;;;;5080202;28;20205;-63
2024/02/08 09:48:59;;;;;;;15.45;9.38;;;5.60;99.90;;;;;;5080205;28;20185;-64
2024/02/08 09:51:35;;;;;;;13.80;8.98;;;5.70;99.90;;;;;;5080218;28;20706;-63
2024/02/08 09:54:15;;;;;;;11.40;8.38;;;5.80;99.90;;;;;;5080369;28;20258;-63
2024/02/08 09:56:50;;;;;;;10.18;6.55;;;5.90;99.90;;;;;;5080942;28;20196;-63
2024/02/08 09:59:20;;;;;;;19.73;7.20;;;5.90;99.90;;;;;;5082964;28;20564;-64
2024/02/08 10:01:49;;;;;;;18.50;8.27;;;6.00;99.90;;;;;;5079882;28;20225;-62
2024/02/08 10:04:19;;;;;;;13.98;8.27;;;6.00;99.90;;;;;;5080165;28;20196;-64
2024/02/08 10:06:56;;;;;;;16.75;9.02;;;6.00;99.90;;;;;;5080781;28;20540;-63
2024/02/08 10:09:40;;;;;;;14.30;8.43;;;6.00;99.90;;;;;;5079174;28;20238;-63
2024/02/08 10:12:11;;;;;;;15.98;8.63;;;6.00;99.90;;;;;;5080406;28;20655;-62
2024/02/08 10:14:41;;;;;;;16.77;8.82;;;6.10;99.90;;;;;;5080934;28;20192;-62
2024/02/08 10:17:18;;;;;;;13.88;8.43;;;6.20;99.90;;;;;;5080041;28;20205;-64
2024/02/08 10:22:53;;;;;;;14.98;8.48;;;6.30;99.90;;;;;;5079335;28;20288;-64
2024/02/08 10:28:07;;;;;;;17.17;7.88;;;6.60;99.90;;;;;;5079161;28;20337;-64
2024/02/08 10:30:36;;;;;;;18.98;8.70;;;6.60;99.90;;;;;;5078958;28;20205;-63
2024/02/08 10:33:04;;;;;;;18.35;8.43;;;6.60;99.90;;;;;;5079666;28;20212;-64
2024/02/08 10:35:39;;;;;;;17.98;7.93;;;6.80;99.90;;;;;;5078295;28;20201;-63
2024/02/08 10:38:08;;;;;;;14.05;8.55;;;6.90;99.90;;;;;;5077729;28;20220;-64
2024/02/08 10:40:36;;;;;;;12.90;7.53;;;7.10;99.90;;;;;;5077588;28;20631;-63
2024/02/08 10:43:16;;;;;;;12.45;6.82;;;7.20;99.90;;;;;;5080687;28;20219;-62
2024/02/08 10:45:52;;;;;;;13.50;6.85;;;7.40;99.90;;;;;;5083249;28;20192;-63
2024/02/08 10:48:21;;;;;;;7.57;6.10;;;7.50;99.90;;;;;;5079546;28;20181;-64
2024/02/08 10:50:51;;;;;;;11.75;5.68;;;7.40;99.90;;;;;;5077624;28;20217;-63
2024/02/08 10:53:43;;;;;;;10.93;7.00;;;7.40;99.90;;;;;;5078363;28;20304;-64
2024/02/08 10:56:14;;;;;;;11.82;6.57;;;7.40;99.90;;;;;;5078496;28;20659;-63
2024/02/08 10:59:09;;;;;;;14.77;6.65;;;7.40;99.90;;;;;;5078611;28;20184;-64
2024/02/08 11:01:37;;;;;;;12.23;6.30;;;7.40;99.90;;;;;;5077430;28;20225;-64
2024/02/08 11:04:17;;;;;;;13.00;6.50;;;7.40;99.90;;;;;;5077345;28;20193;-63
2024/02/08 11:06:54;;;;;;;14.88;5.43;;;7.50;99.90;;;;;;5077761;28;20251;-64
2024/02/08 11:09:22;;;;;;;16.83;6.78;;;7.50;99.90;;;;;;5076244;28;20639;-63
2024/02/08 11:11:59;;;;;;;8.93;5.88;;;7.50;99.90;;;;;;5077630;28;20575;-63
2024/02/08 11:14:27;;;;;;;11.98;6.25;;;7.40;99.90;;;;;;5078614;28;20215;-63
2024/02/08 11:16:55;;;;;;;12.48;6.38;;;7.40;99.90;;;;;;5079689;28;20224;-64
2024/02/08 11:19:34;;;;;;;19.67;6.68;;;7.50;99.90;;;;;;5079338;28;20213;-63
2024/02/08 11:22:24;;;;;;;16.00;6.55;;;7.60;99.90;;;;;;5081374;28;20224;-64
2024/02/08 11:24:57;;;;;;;13.90;7.28;;;7.70;99.90;;;;;;5081659;28;20188;-64
2024/02/08 11:27:34;;;;;;;9.73;5.50;;;7.80;99.90;;;;;;5078285;28;20687;-63
2024/02/08 11:30:10;;;;;;;11.52;5.57;;;7.90;99.90;;;;;;5077844;28;20235;-63
2024/02/08 11:32:37;;;;;;;9.10;6.18;;;7.90;99.90;;;;;;5081011;28;20230;-64
2024/02/08 11:35:12;;;;;;;11.52;6.93;;;7.90;99.90;;;;;;5082661;28;20559;-65
2024/02/08 11:37:41;;;;;;;12.52;5.85;;;7.90;99.90;;;;;;5081068;28;20185;-63
2024/02/08 11:40:11;;;;;;;10.13;5.93;;;8.00;99.90;;;;;;5078352;28;20220;-64
2024/02/08 11:42:42;;;;;;;11.80;4.88;;;8.00;99.90;;;;;;5078106;28;20221;-64
2024/02/08 11:45:11;;;;;;;11.75;4.30;;;7.90;99.90;;;;;;5077136;28;20198;-64
2024/02/08 11:47:41;;;;;;;10.32;4.78;;;7.80;99.90;;;;;;5077361;28;20247;-64
2024/02/08 11:50:11;;;;;;;15.10;5.20;;;7.80;99.90;;;;;;5077376;28;20278;-63
2024/02/08 11:52:39;;;;;;;18.50;5.20;;;7.70;99.90;;;;;;5076846;28;20327;-62
2024/02/08 11:55:12;;;;;;;9.63;5.40;;;7.70;99.90;;;;;;5078356;28;20201;-64
2024/02/08 11:57:40;;;;;;;13.05;5.38;;;7.70;99.90;;;;;;5077213;28;20189;-62
2024/02/08 12:00:16;;;;;;;11.77;5.53;;;7.70;99.90;;;;;;5076457;28;20667;-63
2024/02/08 12:02:56;;;;;;;19.50;5.80;;;7.60;99.90;;;;;;5076175;28;20199;-64
2024/02/08 12:05:24;;;;;;;9.60;5.72;;;7.60;99.90;;;;;;5077231;28;20193;-63
2024/02/08 12:07:51;;;;;;;11.10;5.90;;;7.50;99.90;;;;;;5077573;28;20618;-63
2024/02/08 12:10:22;;;;;;;23.92;7.43;;;7.30;99.90;;;;;;5076243;28;20209;-63
2024/02/08 12:12:53;;;;;;;9.95;5.28;;;7.20;99.90;;;;;;5075678;28;20212;-62
2024/02/08 12:15:21;;;;;;;12.43;5.03;;;7.20;99.90;;;;;;5078094;28;20272;-64
2024/02/08 12:17:51;;;;;;;13.55;5.18;;;7.30;99.90;;;;;;5077065;28;20207;-63
2024/02/08 12:20:18;;;;;;;13.00;5.13;;;7.30;99.90;;;;;;5077837;28;20193;-64
2024/02/08 12:22:53;;;;;;;21.25;5.07;;;7.30;99.90;;;;;;5077788;28;20213;-63
2024/02/08 12:25:21;;;;;;;12.13;7.07;;;7.30;99.90;;;;;;5076704;28;20185;-64
2024/02/08 12:27:51;;;;;;;14.75;5.80;;;7.20;99.90;;;;;;5076562;28;20208;-65
2024/02/08 12:30:22;;;;;;;12.70;5.57;;;7.20;99.90;;;;;;5077208;28;20696;-63
2024/02/08 12:32:51;;;;;;;13.73;5.85;;;7.10;99.90;;;;;;5077099;28;20189;-62
2024/02/08 12:35:21;;;;;;;14.57;4.90;;;7.00;99.90;;;;;;5080659;28;20616;-64
2024/02/08 12:37:49;;;;;;;9.45;4.82;;;6.90;99.90;;;;;;5080620;28;20558;-64
2024/02/08 12:40:18;;;;;;;9.75;3.95;;;6.90;99.90;;;;;;5081140;28;20208;-65
2024/02/08 12:42:47;;;;;;;8.00;3.83;;;6.90;99.90;;;;;;5081490;28;20224;-64
2024/02/08 12:45:17;;;;;;;9.75;5.00;;;7.00;99.90;;;;;;5081474;28;20209;-64
2024/02/08 12:47:50;;;;;;;8.90;4.55;;;7.00;99.90;;;;;;5080402;28;20258;-63
2024/02/08 12:50:17;;;;;;;12.13;3.28;;;7.00;99.90;;;;;;5080696;28;20246;-65
2024/02/08 12:52:45;;;;;;;7.47;4.18;;;7.00;99.90;;;;;;5080928;28;20738;-64
2024/02/08 12:55:19;;;;;;;9.23;3.42;;;6.90;99.90;;;;;;5080426;28;20217;-63
2024/02/08 12:57:57;;;;;;;8.10;3.47;;;6.90;99.90;;;;;;5080349;28;20228;-64
2024/02/08 13:00:25;;;;;;;7.60;3.50;;;6.90;99.90;;;;;;5080860;28;20189;-64
2024/02/08 13:02:54;;;;;;;8.15;3.88;;;6.80;99.90;;;;;;5080281;28;20636;-63
2024/02/08 13:05:22;;;;;;;7.32;3.70;;;6.80;99.90;;;;;;5081180;28;20236;-65
2024/02/08 13:07:57;;;;;;;11.90;4.20;;;6.70;99.90;;;;;;5080076;28;20576;-64
2024/02/08 13:10:24;;;;;;;7.63;3.95;;;6.70;99.90;;;;;;5081181;28;20195;-64
2024/02/08 13:13:00;;;;;;;6.65;3.28;;;6.60;99.90;;;;;;5081104;28;20300;-65
2024/02/08 13:15:31;;;;;;;7.78;3.33;;;6.60;99.90;;;;;;5079818;28;20211;-64
2024/02/08 13:17:58;;;;;;;9.57;4.40;;;6.60;99.90;;;;;;5079809;28;20185;-64
2024/02/08 13:20:25;;;;;;;14.95;6.28;;;6.50;99.90;;;;;;5080815;28;20207;-66
2024/02/08 13:22:54;;;;;;;10.05;4.25;;;6.40;99.90;;;;;;5082103;28;20612;-64
2024/02/08 13:25:27;;;;;;;9.27;3.63;;;6.40;99.90;;;;;;5083428;28;20193;-64
2024/02/08 13:27:58;;;;;;;10.57;5.15;;;6.40;99.90;;;;;;5080333;28;20666;-64
2024/02/08 13:30:26;;;;;;;10.27;4.13;;;6.40;99.90;;;;;;5080237;28;20205;-65
2024/02/08 13:32:55;;;;;;;9.82;3.85;;;6.40;99.90;;;;;;5081867;28;20211;-64
2024/02/08 13:35:23;;;;;;;8.07;4.20;;;6.30;99.90;;;;;;5080781;28;20232;-63
2024/02/08 13:37:52;;;;;;;9.27;4.20;;;6.30;99.90;;;;;;5080907;28;20228;-64
2024/02/08 13:40:20;;;;;;;16.70;5.68;;;6.30;99.90;;;;;;5080962;28;20209;-64
2024/02/08 13:42:47;;;;;;;15.93;4.85;;;6.30;99.90;;;;;;5083106;28;20215;-65
2024/02/08 13:45:15;;;;;;;9.10;4.70;;;6.30;99.90;;;;;;5083877;28;20262;-64
2024/02/08 13:47:49;;;;;;;9.85;5.28;;;6.20;99.90;;;;;;5083453;28;20232;-64
2024/02/08 13:50:17;;;;;;;11.98;3.90;;;6.20;99.90;;;;;;5081891;28;20712;-65
2024/02/08 13:52:44;;;;;;;8.73;4.40;;;6.10;99.90;;;;;;5083309;28;20212;-64
2024/02/08 13:55:17;;;;;;;8.35;5.55;;;6.10;99.90;;;;;;5083520;28;20217;-64
2024/02/08 13:57:46;;;;;;;13.93;5.07;;;6.00;99.90;;;;;;5083094;28;20193;-63
2024/02/08 14:00:20;;;;;;;9.38;5.00;;;6.00;99.90;;;;;;5084156;28;20216;-63
2024/02/08 14:02:51;;;;;;;13.45;5.40;;;6.00;99.90;;;;;;5084105;28;20188;-63
2024/02/08 14:05:19;;;;;;;11.15;4.38;;;6.00;99.90;;;;;;5084149;28;20528;-64
2024/02/08 14:07:48;;;;;;;15.52;4.10;;;6.00;99.90;;;;;;5086321;28;20205;-64
2024/02/08 14:10:17;;;;;;;9.00;4.70;;;5.90;99.90;;;;;;5086490;28;20209;-63
2024/02/08 14:12:48;;;;;;;11.23;4.72;;;5.90;99.90;;;;;;5089316;28;20350;-64
2024/02/08 14:15:21;;;;;;;14.93;5.15;;;5.90;99.90;;;;;;5091861;28;20205;-65
2024/02/08 14:17:55;;;;;;;9.18;3.83;;;5.90;99.90;;;;;;5090347;28;20181;-64
2024/02/08 14:20:41;;;;;;;9.13;3.67;;;5.90;99.90;;;;;;5085377;28;20190;-63
2024/02/08 14:23:09;;;;;;;12.18;4.10;;;5.90;99.90;;;;;;5082414;28;20189;-64
2024/02/08 14:26:01;;;;;;;5.20;3.70;;;5.80;99.90;;;;;;5084338;28;20201;-66
2024/02/08 14:28:28;;;;;;;11.07;4.40;;;5.80;99.90;;;;;;5084726;28;20185;-64
2024/02/08 14:30:55;;;;;;;10.10;4.55;;;5.70;99.90;;;;;;5085091;28;20223;-64
2024/02/08 14:33:23;;;;;;;14.98;4.95;;;5.70;99.90;;;;;;5086051;28;20197;-62
2024/02/08 14:35:50;;;;;;;8.55;4.32;;;5.70;99.90;;;;;;5088391;28;20197;-63
2024/02/08 14:38:17;;;;;;;6.57;3.10;;;5.60;99.90;;;;;;5085912;28;20204;-65
2024/02/08 14:40:44;;;;;;;4.35;2.72;;;5.50;99.90;;;;;;5087542;28;20232;-63
2024/02/08 14:43:13;;;;;;;5.72;2.72;;;5.50;99.90;;;;;;5090359;28;20201;-63
2024/02/08 14:45:43;;;;;;;5.03;2.20;;;5.40;99.90;;;;;;5090020;28;20203;-65
2024/02/08 14:48:13;;;;;;;2.47;2.15;;;5.30;99.90;;;;;;5087271;28;20201;-65
2024/02/08 14:50:52;;;;;;;5.95;3.47;;;5.20;99.90;;;;;;5084771;28;20225;-64
2024/02/08 14:53:19;;;;;;;8.18;2.00;;;5.20;99.90;;;;;;5086129;28;20516;-65
2024/02/08 14:55:46;;;;;;;3.85;1.55;;;5.10;99.90;;;;;;5083217;28;20607;-64
2024/02/08 15:00:57;;;;;;;5.85;1.70;;;4.80;99.90;;;;;;5079110;28;20266;-64
2024/02/08 15:03:27;;;;;;;3.78;1.60;;;4.60;99.90;;;;;;5077834;28;20197;-65
2024/02/08 15:06:00;;;;;;;1.50;1.30;;;4.50;99.90;;;;;;5077195;28;20197;-64
2024/02/08 15:08:46;;;;;;;4.20;1.38;;;4.40;99.90;;;;;;5077256;28;20208;-64